El Zurdo, Argentina
Current Conditions -  °F | °C
As of 1:00 PM on Saturday 25 Oct 2014 (Local Time) from SCCI Reporting Station
Broken Clouds Broken Clouds  
Wind Chill: 50°   Ceiling: 15000
Heat Index: 50°   Visibility: 6mi
Dew Point: 36°   Wind: 17mph
Humidity: 58%   Direction: 250°WSW
Pressure: 29.41"   Gusts: NA
Location:  51.99°S, 71.22°W
Report Text: SCCI 251600Z 25015KT 9999 FEW030 BKN150 10/02 Q0996 NOSIG
Loading
Personal Weather Stations






























Interactive Weather Map
Tropical Storm Tracking
New forecast layout! Learn more

10-Day Weather Forecast

Advertisements
Track Severe Weather on mobile